F/V Louis Gaetane 2 — FO2401 — position and weather

sailwx.info

Track history (hours):
 
Tides and Currents Weather Stations Pressure Air Temp Water Temp Dewpoint Dewpoint Depression Visibility Wind Speed Wind Dir Waves Ship Positions

F/V Louis Gaetane 2

Last reported at 2014-Aug-01 03:10 UTC. Time now 2014-Aug-01 03:53 UTC.
Position N 43°01' E 003°53'.

Length 25 m.

Type: Fishing. MMSI: 227913000.

Date/timePositionNaut miles runAvg speedWind from/ knotsBaromVisibWave heightAir tempDewpointWater temp
2014-Aug-01 03:10N 43°01' E 003°53'711.9
2014-Aug-01 02:33N 43°08' E 003°50'1211.9
2014-Aug-01 01:33N 43°19' E 003°44'5 0.4
2014-Jul-31 13:31N 43°24' E 003°42'24 3.9
2014-Jul-31 07:33N 43°06' E 004°03'5 4.5
2014-Jul-31 06:29N 43°09' E 004°08'2 2.1
2014-Jul-31 05:33N 43°09' E 004°05'6 4.1
2014-Jul-31 04:08N 43°09' E 003°57'4 4.2
2014-Jul-31 03:07N 43°11' E 003°53'10 5.7
2014-Jul-31 01:25N 43°19' E 003°45'  
2014-Jul-28 10:28N 43°22' E 003°54'6 3.1
2014-Jul-28 08:29N 43°22' E 004°02'4 4.4
2014-Jul-28 07:31N 43°20' E 004°08'4 4.4
2014-Jul-28 06:33N 43°18' E 004°13'  
2014-Jul-25 13:33N 43°23' E 003°42'27 3.7
2014-Jul-25 06:18N 42°57' E 003°55'3 3.7
2014-Jul-25 05:32N 42°60' E 003°54'4 4.5
2014-Jul-25 04:33N 43°04' E 003°52'5 4.6
2014-Jul-25 03:31N 43°09' E 003°50'4 4.4
2014-Jul-25 02:30N 43°13' E 003°48'7 6.7
2014-Jul-25 01:32N 43°19' E 003°44'16 0.8
2014-Jul-24 04:17N 43°03' E 003°52'3 3.8
2014-Jul-24 03:33N 43°06' E 003°51'5 4.7
2014-Jul-24 02:33N 43°10' E 003°48'8 6.6
2014-Jul-24 01:22N 43°18' E 003°45'6 0.6
2014-Jul-23 14:32N 43°24' E 003°42'7 7.1
2014-Jul-23 13:30N 43°17' E 003°44'4 4.6
2014-Jul-23 12:32N 43°13' E 003°40'3 3.0
2014-Jul-23 11:28N 43°15' E 003°43'4 4.6
2014-Jul-23 10:33N 43°18' E 003°47'4 4.1
2014-Jul-23 09:27N 43°21' E 003°52'2 2.0
2014-Jul-23 08:20N 43°22' E 003°55'4 4.2
2014-Jul-23 07:29N 43°22' E 004°00'5 4.3
2014-Jul-23 06:23N 43°21' E 004°06'10 2.5
2014-Jul-23 02:18N 43°21' E 003°52'4 0.3
2014-Jul-22 12:15N 43°22' E 003°46'3 4.4
2014-Jul-22 11:32N 43°21' E 003°42'3 2.9
2014-Jul-22 10:31N 43°18' E 003°42'2 2.5
2014-Jul-22 09:33N 43°18' E 003°45'6 4.3
2014-Jul-22 08:09N 43°21' E 003°52'3 4.4
2014-Jul-22 07:29N 43°22' E 003°56'4 4.2
2014-Jul-22 06:26N 43°24' E 004°01'  
Track history (hours):
 
Tides and Currents Weather Stations Pressure Air Temp Water Temp Dewpoint Dewpoint Depression Visibility Wind Speed Wind Dir Waves Ship Positions

F/V Louis Gaetane 2

Last reported at 2014-Aug-01 03:10 UTC. Time now 2014-Aug-01 03:53 UTC.
Position N 43°01' E 003°53'.

Length 25 m.

Type: Fishing. MMSI: 227913000.

Date/timePositionNaut miles runAvg speedWind from/ knotsBaromVisibWave heightAir tempDewpointWater temp
2014-Aug-01 03:10N 43°01' E 003°53'711.9
2014-Aug-01 02:33N 43°08' E 003°50'1211.9
2014-Aug-01 01:33N 43°19' E 003°44'5 0.4
2014-Jul-31 13:31N 43°24' E 003°42'24 3.9
2014-Jul-31 07:33N 43°06' E 004°03'5 4.5
2014-Jul-31 06:29N 43°09' E 004°08'2 2.1
2014-Jul-31 05:33N 43°09' E 004°05'6 4.1
2014-Jul-31 04:08N 43°09' E 003°57'4 4.2
2014-Jul-31 03:07N 43°11' E 003°53'10 5.7
2014-Jul-31 01:25N 43°19' E 003°45'  
2014-Jul-28 10:28N 43°22' E 003°54'6 3.1
2014-Jul-28 08:29N 43°22' E 004°02'4 4.4
2014-Jul-28 07:31N 43°20' E 004°08'4 4.4
2014-Jul-28 06:33N 43°18' E 004°13'  
2014-Jul-25 13:33N 43°23' E 003°42'27 3.7
2014-Jul-25 06:18N 42°57' E 003°55'3 3.7
2014-Jul-25 05:32N 42°60' E 003°54'4 4.5
2014-Jul-25 04:33N 43°04' E 003°52'5 4.6
2014-Jul-25 03:31N 43°09' E 003°50'4 4.4
2014-Jul-25 02:30N 43°13' E 003°48'7 6.7
2014-Jul-25 01:32N 43°19' E 003°44'16 0.8
2014-Jul-24 04:17N 43°03' E 003°52'3 3.8
2014-Jul-24 03:33N 43°06' E 003°51'5 4.7
2014-Jul-24 02:33N 43°10' E 003°48'8 6.6
2014-Jul-24 01:22N 43°18' E 003°45'6 0.6
2014-Jul-23 14:32N 43°24' E 003°42'7 7.1
2014-Jul-23 13:30N 43°17' E 003°44'4 4.6
2014-Jul-23 12:32N 43°13' E 003°40'3 3.0
2014-Jul-23 11:28N 43°15' E 003°43'4 4.6
2014-Jul-23 10:33N 43°18' E 003°47'4 4.1
2014-Jul-23 09:27N 43°21' E 003°52'2 2.0
2014-Jul-23 08:20N 43°22' E 003°55'4 4.2
2014-Jul-23 07:29N 43°22' E 004°00'5 4.3
2014-Jul-23 06:23N 43°21' E 004°06'10 2.5
2014-Jul-23 02:18N 43°21' E 003°52'4 0.3
2014-Jul-22 12:15N 43°22' E 003°46'3 4.4
2014-Jul-22 11:32N 43°21' E 003°42'3 2.9
2014-Jul-22 10:31N 43°18' E 003°42'2 2.5
2014-Jul-22 09:33N 43°18' E 003°45'6 4.3
2014-Jul-22 08:09N 43°21' E 003°52'3 4.4
2014-Jul-22 07:29N 43°22' E 003°56'4 4.2
2014-Jul-22 06:26N 43°24' E 004°01'  

Dump ship's entire track history